createdAt,value
2022-11-06T00:04:03.953Z,36.83
2022-11-06T00:09:11.198Z,36.39
2022-11-06T00:14:18.420Z,36.61
2022-11-06T00:19:25.611Z,36.48
2022-11-06T00:24:32.884Z,35.90
2022-11-06T00:29:40.087Z,35.62
2022-11-06T00:34:47.218Z,35.48
2022-11-06T00:39:54.444Z,35.34
2022-11-06T00:45:01.685Z,35.31
2022-11-06T00:50:08.950Z,35.41
2022-11-06T00:55:16.136Z,35.60
2022-11-06T01:00:23.368Z,35.74
2022-11-06T01:05:30.566Z,35.86
2022-11-06T01:10:37.747Z,36.11
2022-11-06T01:15:44.977Z,36.27
2022-11-06T01:20:52.161Z,36.55
2022-11-06T01:25:59.355Z,36.75
2022-11-06T01:31:06.566Z,36.98
2022-11-06T01:36:13.722Z,37.16
2022-11-06T01:41:20.982Z,37.29
2022-11-06T01:46:28.291Z,37.45
2022-11-06T01:51:35.496Z,37.58
2022-11-06T01:56:42.667Z,37.73
2022-11-06T02:01:50.228Z,37.93
2022-11-06T02:06:57.267Z,38.00
2022-11-06T02:12:04.555Z,38.18
2022-11-06T02:17:11.840Z,38.25
2022-11-06T02:22:18.935Z,38.35
2022-11-06T02:27:26.116Z,38.58
2022-11-06T02:32:33.346Z,38.65
2022-11-06T02:37:40.577Z,38.70
2022-11-06T02:42:47.847Z,38.82
2022-11-06T02:47:55.053Z,38.83
2022-11-06T02:53:02.239Z,38.89
2022-11-06T02:58:09.575Z,38.89
2022-11-06T03:03:16.721Z,38.82
2022-11-06T03:08:23.849Z,38.83
2022-11-06T03:13:31.074Z,38.79
2022-11-06T03:18:38.293Z,38.75
2022-11-06T03:23:45.503Z,38.73
2022-11-06T03:28:52.777Z,38.79
2022-11-06T03:33:59.997Z,38.81
2022-11-06T03:39:07.137Z,38.83
2022-11-06T03:44:14.325Z,38.90
2022-11-06T03:49:21.632Z,38.93
2022-11-06T03:54:28.688Z,38.93
2022-11-06T03:59:35.902Z,38.92
2022-11-06T04:04:43.124Z,38.97
2022-11-06T04:09:50.297Z,38.99
2022-11-06T04:14:57.499Z,39.06
2022-11-06T04:20:04.708Z,39.06
2022-11-06T04:25:11.817Z,39.10
2022-11-06T04:30:19.197Z,39.11
2022-11-06T04:35:26.494Z,39.08
2022-11-06T04:40:33.729Z,39.08
2022-11-06T04:45:40.890Z,39.04
2022-11-06T04:50:48.151Z,38.96
2022-11-06T04:55:58.831Z,38.91
2022-11-06T05:01:06.128Z,38.85
2022-11-06T05:06:13.485Z,38.79
2022-11-06T05:11:20.650Z,38.73
2022-11-06T05:16:27.870Z,38.76
2022-11-06T05:21:35.151Z,38.75
2022-11-06T05:26:42.332Z,38.75
2022-11-06T05:31:49.567Z,38.75
2022-11-06T05:36:56.831Z,38.76
2022-11-06T05:42:04.082Z,38.82
2022-11-06T05:47:11.443Z,38.80
2022-11-06T05:52:18.714Z,38.82
2022-11-06T05:57:26.127Z,38.83
2022-11-06T06:02:36.482Z,38.84
2022-11-06T06:07:43.725Z,38.94
2022-11-06T06:12:50.852Z,39.08
2022-11-06T06:17:58.098Z,39.05
2022-11-06T06:23:09.210Z,39.12
2022-11-06T06:28:12.884Z,39.12
2022-11-06T06:33:19.750Z,39.25
2022-11-06T06:38:27.001Z,39.16
2022-11-06T06:43:34.222Z,39.25
2022-11-06T06:48:41.466Z,39.28
2022-11-06T06:53:48.791Z,39.31
2022-11-06T06:58:56.007Z,39.44
2022-11-06T07:04:04.591Z,39.59
2022-11-06T07:09:10.439Z,39.65
2022-11-06T07:14:17.577Z,39.67
2022-11-06T07:19:24.788Z,39.64
2022-11-06T07:24:32.013Z,39.55
2022-11-06T07:29:39.282Z,39.58
2022-11-06T07:34:46.502Z,39.50
2022-11-06T07:39:53.674Z,39.48
2022-11-06T07:45:00.854Z,39.50
2022-11-06T07:50:08.025Z,39.52
2022-11-06T07:55:15.232Z,39.36
2022-11-06T08:00:22.434Z,39.23
2022-11-06T08:05:29.724Z,38.98
2022-11-06T08:10:36.937Z,38.86
2022-11-06T08:15:44.096Z,38.74
2022-11-06T08:20:51.338Z,38.66
2022-11-06T08:25:58.571Z,38.45
2022-11-06T08:31:05.811Z,38.39
2022-11-06T08:36:13.054Z,38.37
2022-11-06T08:41:20.449Z,38.25
2022-11-06T08:46:29.516Z,40.35
2022-11-06T08:51:36.740Z,40.05
2022-11-06T08:56:44.026Z,39.99
2022-11-06T09:01:51.520Z,39.84
2022-11-06T09:06:58.575Z,39.78
2022-11-06T09:12:05.828Z,39.63
2022-11-06T09:17:13.002Z,39.36
2022-11-06T09:22:20.240Z,39.37
2022-11-06T09:27:27.497Z,39.39
2022-11-06T09:32:36.281Z,39.33
2022-11-06T09:37:43.519Z,39.28
2022-11-06T09:42:50.851Z,39.16
2022-11-06T09:47:58.053Z,39.09
2022-11-06T09:53:06.269Z,39.12
2022-11-06T09:58:12.794Z,39.14
2022-11-06T10:03:19.927Z,38.96
2022-11-06T10:08:27.311Z,38.84
2022-11-06T10:13:34.548Z,38.86
2022-11-06T10:18:41.745Z,38.68
2022-11-06T10:23:49.048Z,38.51
2022-11-06T10:28:56.710Z,38.51
2022-11-06T10:34:04.046Z,38.40
2022-11-06T10:39:11.295Z,38.23
2022-11-06T10:44:18.514Z,38.22
2022-11-06T10:49:25.686Z,38.07
2022-11-06T10:54:32.873Z,38.32
2022-11-06T10:59:40.189Z,38.50
2022-11-06T11:04:47.304Z,38.37
2022-11-06T11:09:54.529Z,38.32
2022-11-06T11:15:01.745Z,38.32
2022-11-06T11:20:08.953Z,38.34
2022-11-06T11:25:16.419Z,38.18
2022-11-06T11:30:23.810Z,38.06
2022-11-06T11:35:32.893Z,38.00
2022-11-06T11:40:40.389Z,38.05
2022-11-06T11:45:47.812Z,37.99
2022-11-06T11:50:54.968Z,38.06
2022-11-06T11:56:02.290Z,37.87
2022-11-06T12:01:09.561Z,37.86
2022-11-06T12:06:16.759Z,37.85
2022-11-06T12:11:23.926Z,37.88
2022-11-06T12:16:31.164Z,37.78
2022-11-06T12:21:38.468Z,37.78
2022-11-06T12:26:45.821Z,37.69
2022-11-06T12:31:53.127Z,37.72
2022-11-06T12:37:00.278Z,37.77
2022-11-06T12:42:07.766Z,37.79
2022-11-06T12:47:17.147Z,37.85
2022-11-06T12:52:24.670Z,37.86
2022-11-06T12:57:32.249Z,37.79
2022-11-06T13:02:39.978Z,37.82
2022-11-06T13:07:47.190Z,37.82
2022-11-06T13:12:54.350Z,37.78
2022-11-06T13:18:01.915Z,37.82
2022-11-06T13:23:09.228Z,38.83
2022-11-06T13:28:17.042Z,38.33
2022-11-06T13:33:24.073Z,38.21
2022-11-06T13:38:31.321Z,38.17
2022-11-06T13:43:38.846Z,38.15
2022-11-06T13:48:46.368Z,38.12
2022-11-06T13:53:58.530Z,38.11
2022-11-06T13:59:01.179Z,38.05
2022-11-06T14:04:08.638Z,38.03
2022-11-06T14:09:16.298Z,37.98
2022-11-06T14:14:23.685Z,37.96
2022-11-06T14:19:30.934Z,37.95
2022-11-06T14:24:38.124Z,37.95
2022-11-06T14:29:45.359Z,37.95
2022-11-06T14:34:54.624Z,37.99
2022-11-06T14:40:02.084Z,37.99
2022-11-06T14:45:09.500Z,37.98
2022-11-06T14:50:17.852Z,37.95
2022-11-06T14:55:25.005Z,37.99
2022-11-06T15:00:32.573Z,38.02
2022-11-06T15:05:42.568Z,38.04
2022-11-06T15:10:47.254Z,38.04
2022-11-06T15:15:54.767Z,39.16
2022-11-06T15:21:02.307Z,39.43
2022-11-06T15:26:09.895Z,40.15
2022-11-06T15:31:17.518Z,40.42
2022-11-06T15:36:25.256Z,40.35
2022-11-06T15:41:33.283Z,40.36
2022-11-06T15:46:40.490Z,40.36
2022-11-06T15:51:48.106Z,39.92
2022-11-06T15:56:55.370Z,39.90
2022-11-06T16:02:04.028Z,40.12
2022-11-06T16:07:11.553Z,39.44
2022-11-06T16:12:19.141Z,39.12
2022-11-06T16:17:26.859Z,39.06
2022-11-06T16:22:34.503Z,39.51
2022-11-06T16:27:41.666Z,39.15
2022-11-06T16:32:48.988Z,38.94
2022-11-06T16:38:12.762Z,38.89
2022-11-06T16:43:04.118Z,38.80
2022-11-06T16:48:11.834Z,38.67
2022-11-06T16:53:19.187Z,38.49
2022-11-06T16:58:26.654Z,38.51
2022-11-06T17:03:33.995Z,38.47
2022-11-06T17:08:41.497Z,38.71
2022-11-06T17:13:49.918Z,38.32
2022-11-06T17:18:57.417Z,38.25
2022-11-06T17:24:24.333Z,38.19
2022-11-06T17:29:12.374Z,37.93
2022-11-06T17:34:19.842Z,37.71
2022-11-06T17:39:27.782Z,37.51
2022-11-06T17:44:35.277Z,37.43
2022-11-06T17:49:42.997Z,37.38
2022-11-06T17:54:50.632Z,37.21
2022-11-06T17:59:57.922Z,37.23
2022-11-06T18:05:05.428Z,37.70
2022-11-06T18:10:13.072Z,37.51
2022-11-06T18:15:21.134Z,37.25
2022-11-06T18:20:28.578Z,37.38
2022-11-06T18:25:36.219Z,37.78
2022-11-06T18:30:45.337Z,38.07
2022-11-06T18:35:52.489Z,37.22
2022-11-06T18:41:00.288Z,36.61
2022-11-06T18:46:07.776Z,36.48
2022-11-06T18:51:27.481Z,36.93
2022-11-06T18:56:22.718Z,37.37
2022-11-06T19:01:30.537Z,37.62
2022-11-06T19:06:38.035Z,37.73
2022-11-06T19:11:45.671Z,36.21
2022-11-06T19:16:53.360Z,36.77
2022-11-06T19:22:00.979Z,36.22
2022-11-06T19:27:08.720Z,36.78
2022-11-06T19:32:16.415Z,37.56
2022-11-06T19:37:24.130Z,35.63
2022-11-06T19:42:31.884Z,36.28
2022-11-06T19:47:39.663Z,36.35
2022-11-06T19:52:49.625Z,36.81
2022-11-06T19:57:55.431Z,37.20
2022-11-06T20:03:02.914Z,36.78
2022-11-06T20:08:10.539Z,35.38
2022-11-06T20:13:18.288Z,36.35
2022-11-06T20:18:25.588Z,36.73
2022-11-06T20:23:33.270Z,36.41
2022-11-06T20:28:40.907Z,36.38
2022-11-06T20:33:48.613Z,36.38
2022-11-06T20:38:56.232Z,36.94
2022-11-06T20:44:03.943Z,36.47
2022-11-06T20:49:11.389Z,36.65
2022-11-06T20:54:19.164Z,36.90
2022-11-06T20:59:26.802Z,36.74
2022-11-06T21:04:34.494Z,36.65
2022-11-06T21:09:41.907Z,36.71
2022-11-06T21:14:49.554Z,36.84
2022-11-06T21:19:57.134Z,36.99
2022-11-06T21:25:05.273Z,36.80
2022-11-06T21:30:12.486Z,36.66
2022-11-06T21:35:19.868Z,36.68
2022-11-06T21:40:27.273Z,36.59
2022-11-06T21:45:34.410Z,36.61
2022-11-06T21:50:41.595Z,36.64
2022-11-06T21:55:53.679Z,36.66
2022-11-06T22:00:56.298Z,37.09
2022-11-06T22:06:03.229Z,36.66
2022-11-06T22:11:10.524Z,36.84
2022-11-06T22:16:17.780Z,37.00
2022-11-06T22:21:25.040Z,36.65
2022-11-06T22:26:32.241Z,36.72
2022-11-06T22:31:39.622Z,36.60
2022-11-06T22:36:47.478Z,37.53
2022-11-06T22:41:54.690Z,36.83
2022-11-06T22:47:01.979Z,36.73
2022-11-06T22:52:09.223Z,36.64
2022-11-06T22:57:16.528Z,36.96
2022-11-06T23:02:23.971Z,37.34
2022-11-06T23:07:31.007Z,37.53
2022-11-06T23:12:38.232Z,37.54
2022-11-06T23:17:45.482Z,37.45
2022-11-06T23:22:52.748Z,36.88
2022-11-06T23:27:59.999Z,37.29
2022-11-06T23:33:07.286Z,37.00
2022-11-06T23:38:14.503Z,36.90
2022-11-06T23:43:21.815Z,36.16
2022-11-06T23:48:29.047Z,35.93
2022-11-06T23:53:36.185Z,35.90
2022-11-06T23:58:43.349Z,35.54
